Time;durP1;ratioP1;P1;durP2;ratioP2;P2;SDS_P1;SDS_P2;PMS_P1;PMS_P2;Temp;Humidity;BMP_temperature;BMP_pressure;BME280_temperature;BME280_humidity;BME280_pressure;Samples;Min_cycle;Max_cycle;Signal;HPM_P1;HPM_P2
2023/08/18 00:00:11;;;;;;;;;21.00;17.50;;;;;-146.67;45.44;74164.53;5025154;28;61848;-74
2023/08/18 00:02:37;;;;;;;;;17.50;17.25;;;;;-146.67;45.54;74168.50;5053491;28;61838;-74
2023/08/18 00:05:02;;;;;;;;;20.50;16.00;;;;;-146.67;45.31;74168.50;5042653;28;61807;-74
2023/08/18 00:07:28;;;;;;;;;19.75;16.00;;;;;-146.67;45.53;74164.53;5042787;28;62045;-74
2023/08/18 00:09:53;;;;;;;;;14.00;14.00;;;;;-146.67;45.67;74172.50;5042480;28;61825;-74
2023/08/18 00:12:18;;;;;;;;;16.75;14.25;;;;;-146.67;45.71;74172.50;5043157;28;62283;-75
2023/08/18 00:14:44;;;;;;;;;20.75;17.75;;;;;-146.67;45.73;74170.50;5025315;28;61942;-74
2023/08/18 00:17:10;;;;;;;;;23.75;17.75;;;;;-146.67;45.69;74168.50;5024357;28;63794;-74
2023/08/18 00:19:35;;;;;;;;;20.00;17.00;;;;;-146.67;45.62;74170.50;5024481;28;61892;-74
2023/08/18 00:22:01;;;;;;;;;18.25;16.75;;;;;-146.67;45.87;74170.50;5043207;28;61858;-74
2023/08/18 00:24:26;;;;;;;;;21.25;17.75;;;;;-146.67;45.75;74172.50;5042378;28;61817;-74
2023/08/18 00:26:52;;;;;;;;;18.50;17.50;;;;;-146.67;45.92;74174.50;5042384;28;62008;-74
2023/08/18 00:29:17;;;;;;;;;23.25;19.25;;;;;-146.67;46.08;74190.47;5042415;28;62072;-74
2023/08/18 00:31:43;;;;;;;;;13.75;12.25;;;;;-146.67;46.12;74190.47;5043006;28;61930;-74
2023/08/18 00:34:09;;;;;;;;;17.25;15.25;;;;;-146.67;46.21;74198.47;5024554;28;61939;-74
2023/08/18 00:36:34;;;;;;;;;19.50;16.00;;;;;-146.67;46.20;74200.44;5024391;28;65103;-74
2023/08/18 00:39:01;;;;;;;;;20.00;19.75;;;;;-146.67;46.48;74202.44;5042079;28;61991;-74
2023/08/18 00:41:26;;;;;;;;;16.50;15.25;;;;;-146.67;46.62;74208.44;5024751;28;61923;-74
2023/08/18 00:43:52;;;;;;;;;24.50;20.25;;;;;-146.67;46.79;74216.44;5024437;28;61881;-74
2023/08/18 00:46:19;;;;;;;;;21.25;17.50;;;;;-146.67;46.65;74214.44;5024034;28;63683;-74
2023/08/18 00:48:44;;;;;;;;;19.50;17.25;;;;;-146.67;46.71;74216.44;5042731;28;61836;-74
2023/08/18 00:51:11;;;;;;;;;21.25;20.00;;;;;-146.67;46.88;74224.41;5023924;28;61840;-74
2023/08/18 00:53:39;;;;;;;;;23.00;18.50;;;;;-146.67;46.74;74224.41;5040266;28;62087;-74
2023/08/18 00:56:06;;;;;;;;;21.25;17.25;;;;;-146.67;46.89;74224.41;5024117;28;63772;-74
2023/08/18 00:58:33;;;;;;;;;21.50;18.00;;;;;-146.67;46.73;74226.41;5042191;28;61719;-74
2023/08/18 01:00:59;;;;;;;;;17.25;15.75;;;;;-146.67;47.07;74240.38;5042562;28;61768;-74
2023/08/18 01:03:25;;;;;;;;;18.50;16.75;;;;;-146.67;47.21;74246.38;5057790;28;61927;-74
2023/08/18 01:05:51;;;;;;;;;15.00;14.75;;;;;-146.67;47.25;74252.34;5041800;28;62088;-74
2023/08/18 01:08:16;;;;;;;;;26.75;22.00;;;;;-146.67;47.40;74258.34;5041595;28;61902;-74
2023/08/18 01:10:56;;;;;;;;;20.25;17.50;;;;;-146.67;47.27;74258.34;5042629;28;61880;-74
2023/08/18 01:13:48;;;;;;;;;18.50;18.00;;;;;-146.67;47.44;74262.34;5023927;28;62161;-74
2023/08/18 01:16:21;;;;;;;;;24.75;19.50;;;;;-146.67;47.31;74260.34;5023692;28;63872;-74
2023/08/18 01:18:49;;;;;;;;;26.50;21.25;;;;;-146.67;47.54;74258.34;5041995;28;61954;-74
2023/08/18 01:21:17;;;;;;;;;17.25;15.75;;;;;-146.67;47.47;74254.34;5041798;28;61743;-74
2023/08/18 01:23:43;;;;;;;;;21.50;20.50;;;;;-146.67;47.45;74254.34;5041603;28;61796;-74
2023/08/18 01:26:08;;;;;;;;;21.00;18.50;;;;;-146.67;47.75;74256.34;5022667;28;63598;-74
2023/08/18 01:28:35;;;;;;;;;22.50;18.25;;;;;-146.67;47.85;74266.34;5041697;28;61724;-74
2023/08/18 01:31:04;;;;;;;;;18.00;17.50;;;;;-146.67;47.85;74260.34;5040606;28;62264;-74
2023/08/18 01:33:36;;;;;;;;;23.75;19.50;;;;;-146.67;47.96;74274.31;5041948;28;62069;-74
2023/08/18 01:36:12;;;;;;;;;20.75;18.00;;;;;-146.67;47.69;74272.31;5022282;28;63610;-75
2023/08/18 01:38:38;;;;;;;;;23.25;19.50;;;;;-146.67;48.02;74280.31;5040051;28;62008;-74
2023/08/18 01:41:05;;;;;;;;;27.75;23.25;;;;;-146.67;48.21;74276.31;5041909;28;61859;-74
2023/08/18 01:43:34;;;;;;;;;17.00;17.00;;;;;-146.67;48.24;74284.28;5040700;28;62163;-74
2023/08/18 01:46:01;;;;;;;;;19.75;18.00;;;;;-146.67;48.29;74284.28;5039883;28;63283;-74
2023/08/18 01:48:27;;;;;;;;;22.00;20.25;;;;;-146.67;48.16;74274.31;5041550;28;61902;-75
2023/08/18 01:50:52;;;;;;;;;19.25;15.25;;;;;-146.67;48.07;74274.31;5022991;28;61946;-74
2023/08/18 01:53:18;;;;;;;;;21.00;17.00;;;;;-146.67;48.12;74270.31;5040921;28;62274;-74
2023/08/18 01:55:43;;;;;;;;;20.75;17.00;;;;;-146.67;48.10;74276.31;5022648;28;64977;-74
2023/08/18 01:58:08;;;;;;;;;23.50;18.75;;;;;-146.67;48.43;74282.31;5041649;28;61989;-74
2023/08/18 02:00:34;;;;;;;;;20.50;18.50;;;;;-146.67;48.52;74292.28;5023636;28;61788;-74
2023/08/18 02:02:59;;;;;;;;;19.75;16.50;;;;;-146.67;48.43;74290.28;5023949;28;62019;-74
2023/08/18 02:05:25;;;;;;;;;24.00;19.50;;;;;-146.67;48.41;74296.28;5022447;28;64826;-74
2023/08/18 02:07:50;;;;;;;;;25.25;20.75;;;;;-146.67;48.47;74290.28;5041453;28;61676;-74
2023/08/18 02:10:16;;;;;;;;;17.50;17.50;;;;;-146.67;48.56;74298.28;5041334;28;62460;-74
2023/08/18 02:12:41;;;;;;;;;17.50;17.50;;;;;-146.67;48.32;74296.28;5041414;28;61795;-74
2023/08/18 02:15:07;;;;;;;;;30.75;25.25;;;;;-146.67;48.66;74290.28;5022708;28;63655;-74
2023/08/18 02:17:32;;;;;;;;;28.00;22.75;;;;;-146.67;48.80;74294.28;5041166;28;61933;-74
2023/08/18 02:20:01;;;;;;;;;22.00;20.25;;;;;-146.67;48.89;74298.28;5040419;28;62166;-74
2023/08/18 02:22:26;;;;;;;;;22.50;18.50;;;;;-146.67;48.85;74292.28;5041278;28;61802;-74
2023/08/18 02:24:52;;;;;;;;;21.75;20.25;;;;;-146.67;48.63;74298.28;5040154;28;61999;-74
2023/08/18 02:27:18;;;;;;;;;24.50;20.25;;;;;-146.67;48.86;74306.25;5023590;28;61918;-74
2023/08/18 02:29:43;;;;;;;;;21.25;20.25;;;;;-146.67;48.82;74308.25;5040919;28;61866;-74
2023/08/18 02:32:09;;;;;;;;;22.75;20.50;;;;;-146.67;48.96;74314.25;5041423;28;61988;-74
2023/08/18 02:34:35;;;;;;;;;31.50;23.75;;;;;-146.67;49.06;74324.22;5040158;28;61837;-74
2023/08/18 02:37:01;;;;;;;;;20.75;16.75;;;;;-146.67;49.11;74316.25;5023069;28;61923;-74
2023/08/18 02:39:26;;;;;;;;;28.50;23.00;;;;;-146.67;49.08;74318.25;5040910;28;61739;-74
2023/08/18 02:41:52;;;;;;;;;24.25;22.50;;;;;-146.67;49.12;74314.25;5041154;28;61779;-74
2023/08/18 02:44:18;;;;;;;;;28.25;22.00;;;;;-146.67;49.18;74310.25;5040246;28;61944;-74
2023/08/18 02:46:43;;;;;;;;;21.00;19.25;;;;;-146.67;49.21;74306.25;5041313;28;61760;-74
2023/08/18 02:49:08;;;;;;;;;24.25;20.75;;;;;-146.67;49.12;74316.25;5040665;28;62465;-74
2023/08/18 02:51:34;;;;;;;;;24.75;21.00;;;;;-146.67;49.29;74324.22;5022759;28;61939;-74
2023/08/18 02:53:59;;;;;;;;;25.50;21.75;;;;;-146.67;49.47;74326.22;5021406;28;63807;-74
2023/08/18 02:56:26;;;;;;;;;27.00;23.25;;;;;-146.67;49.22;74326.22;5040949;28;61889;-74
2023/08/18 02:58:52;;;;;;;;;25.50;20.75;;;;;-146.67;49.39;74328.22;5041812;28;61897;-74
2023/08/18 03:01:18;;;;;;;;;26.00;25.00;;;;;-146.67;49.64;74328.22;5026575;28;62025;-74
2023/08/18 03:03:43;;;;;;;;;23.50;22.75;;;;;-146.67;49.61;74330.22;5025161;28;65133;-74
2023/08/18 03:06:09;;;;;;;;;26.25;24.75;;;;;-146.67;49.66;74340.19;5043842;28;61912;-74
2023/08/18 03:08:39;;;;;;;;;30.75;25.75;;;;;-146.67;50.10;74346.19;5044103;28;61774;-74
2023/08/18 03:11:05;;;;;;;;;31.00;28.75;;;;;-146.67;49.88;74346.19;5044094;28;61727;-74
2023/08/18 03:13:31;;;;;;;;;29.00;21.75;;;;;-146.67;50.05;74342.19;5025451;28;63810;-74
2023/08/18 03:15:57;;;;;;;;;29.25;26.00;;;;;-146.67;50.36;74346.19;5043937;28;62299;-74
2023/08/18 03:18:23;;;;;;;;;24.75;21.25;;;;;-146.67;50.20;74350.19;5025707;28;61950;-74
2023/08/18 03:20:49;;;;;;;;;30.75;25.75;;;;;-146.67;50.24;74352.19;5043712;28;61835;-74
2023/08/18 03:23:17;;;;;;;;;27.00;24.75;;;;;-146.67;50.16;74366.16;5024830;28;63806;-74
2023/08/18 03:25:43;;;;;;;;;24.00;22.00;;;;;-146.67;50.34;74366.16;5043742;28;62217;-74
2023/08/18 03:28:12;;;;;;;;;26.50;23.50;;;;;-146.67;50.47;74368.16;5043915;28;62057;-74
2023/08/18 03:30:38;;;;;;;;;35.50;26.00;;;;;-146.67;50.57;74368.16;5044112;28;62057;-74
2023/08/18 03:33:04;;;;;;;;;27.00;24.75;;;;;-146.67;50.65;74372.13;5042596;28;62799;-74
2023/08/18 03:35:31;;;;;;;;;30.50;25.75;;;;;-146.67;50.72;74376.13;5043337;28;61754;-74
2023/08/18 03:37:58;;;;;;;;;31.25;28.00;;;;;-146.67;50.83;74384.13;5025777;28;61833;-74
2023/08/18 03:40:24;;;;;;;;;27.00;23.00;;;;;-146.67;50.63;74376.13;5025619;28;62152;-74
2023/08/18 03:42:50;;;;;;;;;31.75;28.00;;;;;-146.67;50.68;74378.13;5043074;28;63127;-74
2023/08/18 03:45:16;;;;;;;;;26.25;23.50;;;;;-146.67;50.69;74368.16;5043105;28;61924;-74
2023/08/18 03:47:42;;;;;;;;;22.50;20.25;;;;;-146.67;50.74;74366.16;5043427;28;62062;-74
2023/08/18 03:50:07;;;;;;;;;34.25;26.50;;;;;-146.67;50.54;74372.13;5043137;28;61881;-74
2023/08/18 03:52:33;;;;;;;;;27.25;22.50;;;;;-146.67;50.82;74366.16;5024868;28;63501;-74
2023/08/18 03:54:58;;;;;;;;;28.25;25.00;;;;;-146.67;50.74;74370.16;5042719;28;62396;-74
2023/08/18 03:57:23;;;;;;;;;28.00;24.25;;;;;-146.67;50.79;74370.16;5043524;28;62240;-74
2023/08/18 03:59:49;;;;;;;;;32.00;26.00;;;;;-146.67;50.74;74374.13;5043582;28;61822;-74
2023/08/18 04:02:14;;;;;;;;;32.50;26.50;;;;;-146.67;50.63;74376.13;5042173;28;61974;-74
2023/08/18 04:04:40;;;;;;;;;34.25;29.50;;;;;-146.67;50.95;74386.13;5058549;28;61977;-74
2023/08/18 04:07:05;;;;;;;;;33.00;27.00;;;;;-146.67;50.88;74392.09;5043229;28;61903;-74
2023/08/18 04:09:30;;;;;;;;;29.00;27.25;;;;;-146.67;51.18;74400.09;5021407;28;61802;-74
2023/08/18 04:11:56;;;;;;;;;36.50;27.75;;;;;-146.67;51.12;74390.09;5038428;28;61744;-74
2023/08/18 04:14:21;;;;;;;;;31.00;28.00;;;;;-146.67;50.98;74384.13;5042696;28;61792;-74
2023/08/18 04:16:46;;;;;;;;;29.25;27.00;;;;;-146.67;51.13;74394.09;5043015;28;62064;-74
2023/08/18 04:19:12;;;;;;;;;32.25;25.50;;;;;-146.67;51.23;74398.09;5025028;28;62103;-74
2023/08/18 04:21:37;;;;;;;;;31.75;28.25;;;;;-146.67;51.39;74404.09;5041930;28;62944;-74
2023/08/18 04:24:03;;;;;;;;;28.00;25.75;;;;;-146.67;51.27;74408.06;5058140;28;62040;-74
2023/08/18 04:26:29;;;;;;;;;29.25;27.50;;;;;-146.67;51.29;74410.06;5042908;28;62120;-74
2023/08/18 04:28:54;;;;;;;;;32.00;29.00;;;;;-146.67;51.40;74416.06;5043210;28;61940;-74
2023/08/18 04:31:20;;;;;;;;;32.75;27.75;;;;;-146.67;51.28;74412.06;5041821;28;63040;-74
2023/08/18 04:33:45;;;;;;;;;27.25;22.75;;;;;-146.67;51.45;74424.03;5042822;28;61809;-74
2023/08/18 04:36:10;;;;;;;;;27.25;25.00;;;;;-146.67;51.66;74418.06;5042647;28;62031;-74
2023/08/18 04:38:36;;;;;;;;;34.75;21.50;;;;;-146.67;51.98;74432.03;5042560;28;61976;-74
2023/08/18 04:41:02;;;;;;;;;35.75;25.75;;;;;-146.67;51.78;74426.03;5042272;28;61979;-74
2023/08/18 04:43:29;;;;;;;;;32.50;28.50;;;;;-146.67;51.92;74438.03;5042465;28;61864;-74
2023/08/18 04:45:55;;;;;;;;;33.25;25.75;;;;;-146.67;51.97;74436.03;5042345;28;61909;-74
2023/08/18 04:48:24;;;;;;;;;34.25;26.50;;;;;-146.67;51.83;74432.03;5024666;28;62186;-74
2023/08/18 04:50:50;;;;;;;;;35.50;26.75;;;;;-146.67;51.76;74430.03;5041510;28;61936;-74
2023/08/18 04:53:16;;;;;;;;;34.00;27.50;;;;;-146.67;51.64;74424.03;5023611;28;62017;-74
2023/08/18 04:55:43;;;;;;;;;28.50;24.25;;;;;-146.67;51.63;74424.03;5042267;28;61842;-74
2023/08/18 04:58:12;;;;;;;;;29.50;28.00;;;;;-146.67;51.96;74422.03;5042787;28;61819;-74
2023/08/18 05:00:41;;;;;;;;;28.75;25.50;;;;;-146.67;51.82;74416.06;5041506;28;61924;-74
2023/08/18 05:03:07;;;;;;;;;25.25;24.25;;;;;-146.67;51.66;74408.06;5024386;28;61970;-73
2023/08/18 05:05:58;;;;;;;;;28.50;25.25;;;;;-146.67;51.69;74408.06;5023706;28;61761;-74
2023/08/18 05:08:25;;;;;;;;;27.50;24.25;;;;;-146.67;51.67;74414.06;5033349;28;61711;-75
2023/08/18 05:10:50;;;;;;;;;31.25;28.50;;;;;-146.67;51.84;74418.06;5041062;28;63200;-75
2023/08/18 05:13:16;;;;;;;;;29.25;28.25;;;;;-146.67;51.85;74420.06;5023947;28;62238;-75
2023/08/18 05:15:43;;;;;;;;;27.50;24.50;;;;;-146.67;51.63;74412.06;5040684;28;61857;-75
2023/08/18 05:18:08;;;;;;;;;30.25;27.75;;;;;-146.67;51.63;74402.09;5041823;28;61942;-75
2023/08/18 05:20:34;;;;;;;;;32.50;28.50;;;;;-146.67;51.73;74396.09;5060086;28;61981;-74
2023/08/18 05:22:59;;;;;;;;;29.75;24.25;;;;;-146.67;51.59;74382.13;5061522;28;61892;-74
2023/08/18 05:25:24;;;;;;;;;41.50;31.25;;;;;-146.67;51.32;74376.13;5061403;28;61858;-75
2023/08/18 05:27:50;;;;;;;;;36.00;26.75;;;;;-146.67;51.54;74368.16;5042232;28;61903;-75
2023/08/18 05:30:15;;;;;;;;;38.50;30.50;;;;;-146.67;51.23;74358.16;5056370;28;64872;-75
2023/08/18 05:32:41;;;;;;;;;27.50;26.25;;;;;-146.67;51.53;74350.19;5041656;28;62101;-74
2023/08/18 05:35:06;;;;;;;;;35.25;26.75;;;;;-146.67;51.40;74342.19;5041621;28;62031;-76
2023/08/18 05:37:32;;;;;;;;;29.50;27.00;;;;;-146.67;51.49;74336.19;5022836;28;62100;-76
2023/08/18 05:39:57;;;;;;;;;30.25;26.25;;;;;-146.67;51.25;74332.22;5040804;28;62028;-76
2023/08/18 05:42:22;;;;;;;;;31.00;28.00;;;;;-146.67;51.23;74336.19;5041241;28;62562;-75
2023/08/18 05:44:48;;;;;;;;;30.50;28.00;;;;;-146.67;51.35;74332.22;5041331;28;62409;-80
2023/08/18 05:47:13;;;;;;;;;26.25;25.25;;;;;-146.67;51.02;74306.25;5041670;28;62525;-80
2023/08/18 05:49:39;;;;;;;;;32.00;27.50;;;;;-146.67;50.54;74288.28;5039878;28;62743;-80
2023/08/18 05:52:04;;;;;;;;;28.75;28.00;;;;;-146.67;50.53;74288.28;5041437;28;61874;-77
2023/08/18 05:54:30;;;;;;;;;26.00;24.75;;;;;-146.67;50.38;74274.31;5040527;28;61893;-75
2023/08/18 05:56:55;;;;;;;;;30.75;25.50;;;;;-146.67;50.42;74270.31;5041123;28;61637;-77
2023/08/18 05:59:20;;;;;;;;;34.75;30.75;;;;;-146.67;50.68;74276.31;5022803;28;63923;-77
2023/08/18 06:01:46;;;;;;;;;27.75;25.75;;;;;-146.67;50.68;74282.31;5033109;28;61902;-79
2023/08/18 06:04:12;;;;;;;;;33.25;27.00;;;;;-146.67;50.59;74272.31;5059272;28;61753;-78
2023/08/18 06:06:37;;;;;;;;;30.25;26.50;;;;;-146.67;50.65;74262.34;5043516;28;62077;-78
2023/08/18 06:09:03;;;;;;;;;30.25;26.25;;;;;-146.67;50.62;74264.34;5060527;28;61792;-75
2023/08/18 06:11:28;;;;;;;;;26.50;25.00;;;;;-146.67;50.60;74248.38;5059726;28;61846;-74
2023/08/18 06:13:54;;;;;;;;;33.00;25.75;;;;;-146.67;50.36;74236.38;5061508;28;62431;-76
2023/08/18 06:16:19;;;;;;;;;30.00;21.25;;;;;-146.67;50.24;74228.41;5061496;28;61990;-76
2023/08/18 06:18:44;;;;;;;;;28.75;24.75;;;;;-146.67;49.93;74216.44;5060792;28;62037;-76
2023/08/18 06:21:10;;;;;;;;;25.00;24.50;;;;;-146.67;49.90;74198.47;5060045;28;61836;-76
2023/08/18 06:23:36;;;;;;;;;27.25;23.25;;;;;-146.67;50.05;74204.44;5060257;28;61828;-78
2023/08/18 06:26:01;;;;;;;;;30.25;25.50;;;;;-146.67;50.07;74210.44;5042693;28;62027;-75
2023/08/18 06:28:26;;;;;;;;;29.00;26.75;;;;;-146.67;50.02;74200.44;5023896;28;64687;-75
2023/08/18 06:30:52;;;;;;;;;30.50;26.50;;;;;-146.67;49.97;74190.47;5020623;28;61872;-76
2023/08/18 06:33:17;;;;;;;;;28.75;24.00;;;;;-146.67;50.07;74188.47;5020857;28;61778;-75
2023/08/18 06:35:43;;;;;;;;;35.50;27.75;;;;;-146.67;50.08;74178.50;5023791;28;61756;-75
2023/08/18 06:38:08;;;;;;;;;32.25;29.25;;;;;-146.67;49.63;74164.53;5036602;28;63693;-75
2023/08/18 06:40:33;;;;;;;;;32.25;25.75;;;;;-146.67;49.63;74158.53;5043570;28;61699;-76
2023/08/18 06:42:59;;;;;;;;;34.00;30.75;;;;;-146.67;49.82;74168.50;5043681;28;62394;-75
2023/08/18 06:45:24;;;;;;;;;32.25;25.25;;;;;-146.67;49.76;74146.56;5044243;28;61911;-75
2023/08/18 06:47:49;;;;;;;;;38.50;29.00;;;;;-146.67;49.23;74128.59;5041985;28;62916;-75
2023/08/18 06:50:15;;;;;;;;;32.25;30.00;;;;;-146.67;49.39;74114.63;5024586;28;61899;-77
2023/08/18 06:52:40;;;;;;;;;28.00;25.00;;;;;-146.67;49.29;74104.63;5043373;28;61765;-76
2023/08/18 06:55:07;;;;;;;;;23.50;18.75;;;;;-146.67;49.24;74092.66;5034942;28;62200;-76
2023/08/18 06:57:32;;;;;;;;;30.25;22.75;;;;;-146.67;48.91;74080.69;5041641;28;63945;-77
2023/08/18 06:59:58;;;;;;;;;31.00;27.50;;;;;-146.67;48.76;74068.69;5043180;28;62001;-76
2023/08/18 07:02:23;;;;;;;;;27.25;26.25;;;;;-146.67;48.60;74058.72;5025228;28;62039;-76
2023/08/18 07:04:49;;;;;;;;;35.25;27.00;;;;;-146.67;48.33;74048.75;5043549;28;62044;-75
2023/08/18 07:07:15;;;;;;;;;29.50;22.75;;;;;-146.67;48.60;74044.75;5043156;28;61971;-75
2023/08/18 07:09:40;;;;;;;;;30.75;27.25;;;;;-146.67;48.31;74040.75;5043049;28;61851;-75
2023/08/18 07:12:06;;;;;;;;;24.25;23.00;;;;;-146.67;48.49;74032.75;5025407;28;62458;-77
2023/08/18 07:14:31;;;;;;;;;24.25;22.00;;;;;-146.67;48.07;74022.78;5041929;28;61751;-75
2023/08/18 07:16:56;;;;;;;;;25.00;21.75;;;;;-146.67;48.28;74014.81;5042902;28;62960;-78
2023/08/18 07:19:22;;;;;;;;;32.00;26.25;;;;;-146.67;48.20;74006.81;5023965;28;61975;-76
2023/08/18 07:21:54;;;;;;;;;25.50;24.00;;;;;-146.67;48.20;73998.84;5043203;28;62381;-78
2023/08/18 07:24:19;;;;;;;;;33.50;27.00;;;;;-146.67;47.93;73996.84;5023070;28;61824;-78
2023/08/18 07:26:44;;;;;;;;;24.75;22.25;;;;;-146.67;47.99;73996.84;5028962;28;62200;-78
2023/08/18 07:29:10;;;;;;;;;27.00;26.25;;;;;-146.67;48.21;73996.84;5043199;28;61886;-78
2023/08/18 07:31:37;;;;;;;;;25.25;24.00;;;;;-146.67;47.99;74000.81;5043250;28;62236;-79
2023/08/18 07:34:06;;;;;;;;;28.00;23.00;;;;;-146.67;48.18;74000.81;5043488;28;61740;-80
2023/08/18 07:36:33;;;;;;;;;28.00;24.00;;;;;-146.67;48.18;74004.81;5022464;28;63913;-79
2023/08/18 07:38:58;;;;;;;;;27.50;24.25;;;;;-146.67;48.16;73988.84;5040699;28;61802;-79
2023/08/18 07:41:23;;;;;;;;;24.50;20.25;;;;;-146.67;47.88;73984.84;5042703;28;62388;-78
2023/08/18 07:43:49;;;;;;;;;31.25;22.00;;;;;-146.67;48.04;73980.88;5041968;28;61916;-77
2023/08/18 07:46:14;;;;;;;;;22.00;20.00;;;;;-146.67;48.04;73970.88;5041718;28;61782;-76
2023/08/18 07:48:40;;;;;;;;;30.00;24.00;;;;;-146.67;47.78;73948.94;5042616;28;62064;-76
2023/08/18 07:51:05;;;;;;;;;27.75;24.25;;;;;-146.67;47.90;73932.97;5042517;28;62417;-77
2023/08/18 07:53:31;;;;;;;;;38.25;31.25;;;;;-146.67;47.51;73920.97;5042102;28;61882;-78
2023/08/18 07:55:57;;;;;;;;;23.00;20.25;;;;;-146.67;47.56;73911.00;5024240;28;63865;-78
2023/08/18 07:58:22;;;;;;;;;33.50;25.75;;;;;-146.67;47.62;73915.00;5062352;28;61893;-77
2023/08/18 08:00:48;;;;;;;;;26.75;23.25;;;;;-146.67;47.93;73922.97;5036700;28;61839;-78
2023/08/18 08:03:13;;;;;;;;;36.25;27.75;;;;;-146.67;47.74;73917.00;5025082;28;62270;-79
2023/08/18 08:05:38;;;;;;;;;25.25;21.50;;;;;-146.67;47.58;73905.00;5023808;28;64001;-80
2023/08/18 08:08:05;;;;;;;;;19.25;18.75;;;;;-146.67;47.09;73893.03;5042637;28;61897;-80
2023/08/18 08:10:30;;;;;;;;;24.75;23.00;;;;;-146.67;47.35;73899.03;5042253;28;61947;-79
2023/08/18 08:12:57;;;;;;;;;30.75;24.00;;;;;-146.67;47.10;73889.03;5056504;28;61810;-80
2023/08/18 08:15:22;;;;;;;;;25.00;22.75;;;;;-146.67;47.51;73871.06;5043830;28;64988;-79
2023/08/18 08:17:48;;;;;;;;;25.50;17.75;;;;;-146.67;46.96;73847.13;5062884;28;61956;-82
2023/08/18 08:20:16;;;;;;;;;25.25;22.75;;;;;-146.67;46.80;73831.16;5044080;28;61770;-81
2023/08/18 08:22:47;;;;;;;;;27.75;22.50;;;;;-146.67;46.56;73821.19;5062740;28;61731;-78
2023/08/18 08:25:13;;;;;;;;;28.75;24.25;;;;;-146.67;46.69;73809.19;5061709;28;62964;-77
2023/08/18 08:27:40;;;;;;;;;25.50;22.25;;;;;-146.67;46.28;73789.25;5062146;28;61833;-77
2023/08/18 08:30:07;;;;;;;;;30.00;25.50;;;;;-146.67;46.27;73767.28;5031141;28;62022;-82
2023/08/18 08:32:33;;;;;;;;;25.25;22.50;;;;;-146.67;45.65;73739.34;5024529;28;62145;-78
2023/08/18 08:34:58;;;;;;;;;27.00;22.25;;;;;-146.67;45.59;73717.38;5041762;28;61839;-77
2023/08/18 08:37:24;;;;;;;;;27.50;24.75;;;;;-146.67;45.54;73685.44;5024228;28;61856;-77
2023/08/18 08:39:49;;;;;;;;;23.50;19.25;;;;;-146.67;45.42;73665.47;5023839;28;61780;-77
2023/08/18 08:42:15;;;;;;;;;26.25;24.00;;;;;-146.67;45.57;73661.50;5042525;28;61819;-76
2023/08/18 08:44:42;;;;;;;;;20.75;18.75;;;;;-146.67;45.20;73651.50;5041610;28;62766;-80
2023/08/18 08:47:08;;;;;;;;;24.50;22.00;;;;;-146.67;45.42;73649.50;5047268;28;61878;-80
2023/08/18 08:49:35;;;;;;;;;27.75;23.25;;;;;-146.67;45.02;73655.50;5031906;28;61756;-79
2023/08/18 08:52:07;;;;;;;;;20.00;18.50;;;;;-146.67;45.24;73659.50;5030825;28;61997;-78
2023/08/18 08:54:57;;;;;;;;;20.50;20.25;;;;;-146.67;45.45;73661.50;5026498;28;62557;-77
2023/08/18 08:57:23;;;;;;;;;23.25;21.00;;;;;-146.67;45.68;73645.53;5024175;28;61891;-77
2023/08/18 08:59:50;;;;;;;;;23.75;19.75;;;;;-146.67;45.48;73633.53;5014285;28;61835;-77
2023/08/18 09:02:15;;;;;;;;;20.50;20.50;;;;;-146.67;45.12;73615.59;5022730;28;62140;-79
2023/08/18 09:04:40;;;;;;;;;19.75;17.75;;;;;-146.67;45.34;73593.63;5052085;28;61956;-80
2023/08/18 09:07:09;;;;;;;;;20.25;19.25;;;;;-146.67;45.08;73579.66;5043676;28;61949;-79
2023/08/18 09:09:34;;;;;;;;;22.00;19.33;;;;;-146.67;45.09;73557.69;5050224;28;61847;-80
2023/08/18 09:12:05;;;;;;;;;23.25;18.25;;;;;-146.67;44.67;73551.72;5057432;28;61823;-80
2023/08/18 09:14:32;;;;;;;;;21.25;20.50;;;;;-146.67;44.75;73529.75;5052682;28;63993;-81
2023/08/18 09:16:58;;;;;;;;;17.50;17.25;;;;;-146.67;44.34;73509.78;5031660;28;61868;-81
2023/08/18 09:19:25;;;;;;;;;20.50;19.75;;;;;-146.67;44.42;73493.81;5033147;28;61966;-79
2023/08/18 09:21:51;;;;;;;;;18.33;18.00;;;;;-146.67;44.30;73489.84;5023466;28;62276;-78
2023/08/18 09:24:19;;;;;;;;;16.25;15.75;;;;;-146.67;44.12;73475.88;5023978;28;64059;-78
2023/08/18 09:26:46;;;;;;;;;15.33;15.33;;;;;-146.67;43.86;73457.91;5061670;28;61865;-79
2023/08/18 09:29:11;;;;;;;;;18.33;15.00;;;;;-146.67;43.95;73437.94;5055505;28;62151;-77
2023/08/18 09:31:37;;;;;;;;;16.33;16.33;;;;;-146.67;43.47;73402.00;5023564;28;61982;-77
2023/08/18 09:34:02;;;;;;;;;17.67;16.00;;;;;-146.67;43.60;73368.09;5022486;28;63940;-79
2023/08/18 09:36:30;;;;;;;;;19.33;18.00;;;;;-146.67;43.18;73352.13;5048555;28;62077;-75
2023/08/18 09:38:56;;;;;;;;;17.67;17.67;;;;;-146.67;43.16;73338.16;5048456;28;61893;-76
2023/08/18 09:41:21;;;;;;;;;17.00;16.00;;;;;-146.67;42.94;73324.16;5051966;28;61783;-74
2023/08/18 09:43:48;;;;;;;;;18.00;16.00;;;;;-146.67;42.77;73318.19;5060732;28;63179;-75
2023/08/18 09:46:15;;;;;;;;;16.33;15.67;;;;;-146.67;42.73;73308.22;5052451;28;61756;-75
2023/08/18 09:48:46;;;;;;;;;19.00;16.67;;;;;-146.67;42.72;73298.22;5041742;28;62026;-75
2023/08/18 09:51:12;;;;;;;;;12.33;12.33;;;;;-146.67;42.88;73286.25;5048520;28;61899;-76
2023/08/18 09:53:44;;;;;;;;;16.67;16.00;;;;;-146.67;42.50;73278.28;5040086;28;62103;-77
2023/08/18 09:56:16;;;;;;;;;16.00;15.00;;;;;-146.67;42.54;73252.31;5056650;28;61880;-77
2023/08/18 09:58:54;;;;;;;;;17.67;14.33;;;;;-146.67;42.15;73246.34;5042351;28;62162;-77
2023/08/18 10:01:21;;;;;;;;;16.00;14.33;;;;;-146.67;41.85;73242.34;5022020;28;61886;-77
2023/08/18 10:03:48;;;;;;;;;14.00;13.00;;;;;-146.67;42.04;73230.38;5019946;28;61909;-78
2023/08/18 10:06:16;;;;;;;;;15.33;14.67;;;;;-146.67;41.67;73212.41;5045121;28;61874;-75
2023/08/18 10:08:42;;;;;;;;;16.67;14.67;;;;;-146.67;42.01;73192.44;5033482;28;61843;-77
2023/08/18 10:11:09;;;;;;;;;17.67;15.33;;;;;-146.67;41.63;73188.47;5045077;28;61804;-75
2023/08/18 10:13:37;;;;;;;;;15.67;14.00;;;;;-146.67;41.44;73182.47;5046203;28;61912;-79
2023/08/18 10:16:04;;;;;;;;;16.00;13.33;;;;;-146.67;41.43;73172.50;5049296;28;61923;-76
2023/08/18 10:18:30;;;;;;;;;17.67;15.67;;;;;-146.67;41.44;73166.50;5033999;28;62168;-76
2023/08/18 10:20:56;;;;;;;;;15.33;14.33;;;;;-146.67;40.94;73150.53;5045919;28;61934;-75
2023/08/18 10:23:28;;;;;;;;;16.00;15.33;;;;;-146.67;41.57;73146.53;5034349;28;61883;-75
2023/08/18 10:25:54;;;;;;;;;16.67;13.00;;;;;-146.67;41.31;73134.56;5035422;28;61830;-74
2023/08/18 10:28:20;;;;;;;;;17.33;16.00;;;;;-146.67;41.37;73138.56;5015324;28;62085;-75
2023/08/18 10:30:53;;;;;;;;;18.00;15.33;;;;;-146.67;41.23;73136.56;5014339;28;61884;-74
2023/08/18 10:33:30;;;;;;;;;15.00;14.00;;;;;-146.67;41.21;73126.59;5042913;28;61788;-76
2023/08/18 10:35:58;;;;;;;;;16.33;14.67;;;;;-146.67;40.68;73120.59;5048324;28;61865;-75
2023/08/18 10:38:26;;;;;;;;;13.33;12.33;;;;;-146.67;40.76;73100.66;5032920;28;62074;-74
2023/08/18 10:40:52;;;;;;;;;14.00;11.67;;;;;-146.67;40.98;73082.69;5053670;28;61804;-73
2023/08/18 10:43:18;;;;;;;;;12.00;12.00;;;;;-146.67;40.09;73060.72;5060609;28;63812;-75
2023/08/18 10:45:49;;;;;;;;;15.67;14.33;;;;;-146.67;40.20;73044.75;5038079;28;61906;-74
2023/08/18 10:48:14;;;;;;;;;13.67;12.00;;;;;-146.67;40.02;73024.81;5042057;28;61954;-73
2023/08/18 10:50:44;;;;;;;;;15.33;11.67;;;;;-146.67;39.89;73014.81;5043635;28;61751;-73
2023/08/18 10:53:11;;;;;;;;;15.33;13.33;;;;;-146.67;39.49;73016.81;5042129;28;62123;-74
2023/08/18 10:55:37;;;;;;;;;12.00;12.00;;;;;-146.67;39.88;73022.81;5043591;28;61819;-74
2023/08/18 10:58:02;;;;;;;;;15.00;11.00;;;;;-146.67;39.91;73020.81;5044061;28;62141;-75